Terminal Aerodrome Forecast
Issued by NWS Twin Cities, MN

Home | Current Version | Previous Version | Text Only | Print | Product List | Glossary Off
Versions: 1 2 3 4 5 6 7 8 9 10 11 12 13 14 15 16 17 18 19 20 21 22 23 24

000
FTUS43 KMPX 232322
TAFMSP
TAF
KMSP 232322Z 2400/2506 18007KT P6SM SCT100 BKN250
     FM241500 21008KT P6SM BKN100
     FM241700 28011G17KT P6SM -RA OVC070
     FM241900 31016G24KT P6SM SCT040
     FM250000 30016KT P6SM SKC=

USA.gov is the U.S. government's official web portal to all federal, state and local government web resources and services.